createdAt,value
2023-02-04T00:02:26.150Z,69.19
2023-02-04T00:04:52.730Z,69.83
2023-02-04T00:07:19.311Z,69.94
2023-02-04T00:09:47.311Z,69.84
2023-02-04T00:12:14.521Z,70.67
2023-02-04T00:14:41.287Z,69.98
2023-02-04T00:17:08.127Z,70.50
2023-02-04T00:19:34.695Z,69.89
2023-02-04T00:22:01.592Z,70.45
2023-02-04T00:24:28.117Z,69.77
2023-02-04T00:26:54.676Z,71.03
2023-02-04T00:29:21.203Z,69.99
2023-02-04T00:31:47.823Z,70.74
2023-02-04T00:34:14.459Z,70.68
2023-02-04T00:36:41.015Z,71.10
2023-02-04T00:39:07.568Z,70.70
2023-02-04T00:41:34.087Z,70.28
2023-02-04T00:44:00.630Z,70.36
2023-02-04T00:46:27.183Z,71.24
2023-02-04T00:48:53.689Z,70.63
2023-02-04T00:51:20.451Z,71.36
2023-02-04T00:53:47.027Z,70.44
2023-02-04T00:56:13.627Z,71.21
2023-02-04T00:58:40.185Z,70.84
2023-02-04T01:01:06.802Z,70.79
2023-02-04T01:03:33.382Z,70.71
2023-02-04T01:05:59.934Z,70.80
2023-02-04T01:08:26.547Z,71.50
2023-02-04T01:10:53.102Z,70.78
2023-02-04T01:13:19.626Z,70.80
2023-02-04T01:15:46.946Z,71.91
2023-02-04T01:18:13.559Z,71.10
2023-02-04T01:20:41.712Z,71.14
2023-02-04T01:23:10.261Z,71.24
2023-02-04T01:25:38.578Z,71.24
2023-02-04T01:28:06.525Z,70.99
2023-02-04T01:30:34.955Z,70.79
2023-02-04T01:33:03.194Z,71.63
2023-02-04T01:35:31.204Z,71.65
2023-02-04T01:38:00.185Z,71.19
2023-02-04T01:40:28.488Z,71.84
2023-02-04T01:42:56.718Z,72.37
2023-02-04T01:45:25.199Z,71.78
2023-02-04T01:47:53.673Z,71.84
2023-02-04T01:50:20.326Z,71.79
2023-02-04T01:52:47.289Z,72.51
2023-02-04T01:55:19.336Z,71.95
2023-02-04T01:57:46.492Z,72.50
2023-02-04T02:00:17.862Z,71.63
2023-02-04T02:02:50.909Z,72.45
2023-02-04T02:05:22.134Z,72.13
2023-02-04T02:07:49.716Z,72.49
2023-02-04T02:10:18.301Z,72.80
2023-02-04T02:12:46.480Z,71.92
2023-02-04T02:15:14.030Z,72.36
2023-02-04T02:17:41.478Z,72.06
2023-02-04T02:20:11.880Z,72.21
2023-02-04T02:22:51.530Z,72.37
2023-02-04T02:25:18.082Z,73.02
2023-02-04T02:27:45.054Z,73.34
2023-02-04T02:30:13.315Z,73.74
2023-02-04T02:32:40.460Z,73.25
2023-02-04T02:35:07.728Z,73.13
2023-02-04T02:37:34.341Z,73.09
2023-02-04T02:40:01.144Z,72.84
2023-02-04T02:42:27.786Z,73.62
2023-02-04T02:44:54.656Z,73.07
2023-02-04T02:47:22.996Z,73.12
2023-02-04T02:49:52.753Z,73.06
2023-02-04T02:52:19.761Z,73.71
2023-02-04T02:54:46.850Z,73.11
2023-02-04T02:57:16.963Z,73.35
2023-02-04T02:59:43.673Z,73.26
2023-02-04T03:02:13.842Z,73.41
2023-02-04T03:04:42.458Z,73.61
2023-02-04T03:07:10.547Z,73.48
2023-02-04T03:09:37.252Z,73.41
2023-02-04T03:12:05.621Z,73.28
2023-02-04T03:14:32.836Z,73.51
2023-02-04T03:17:01.424Z,74.10
2023-02-04T03:19:28.625Z,74.11
2023-02-04T03:21:56.642Z,73.80
2023-02-04T03:24:23.947Z,74.21
2023-02-04T03:26:50.779Z,73.66
2023-02-04T03:29:17.536Z,74.09
2023-02-04T03:31:44.264Z,73.75
2023-02-04T03:34:10.883Z,73.97
2023-02-04T03:36:37.761Z,74.72
2023-02-04T03:39:04.443Z,74.32
2023-02-04T03:41:31.060Z,74.71
2023-02-04T03:43:57.641Z,74.33
2023-02-04T03:46:25.952Z,74.63
2023-02-04T03:48:52.569Z,73.91
2023-02-04T03:51:19.155Z,74.79
2023-02-04T03:53:45.754Z,74.66
2023-02-04T03:56:12.325Z,74.04
2023-02-04T03:58:38.874Z,74.72
2023-02-04T04:01:05.575Z,74.24
2023-02-04T04:03:32.113Z,74.24
2023-02-04T04:05:58.661Z,74.89
2023-02-04T04:08:25.669Z,74.22
2023-02-04T04:10:52.288Z,74.86
2023-02-04T04:13:18.823Z,74.98
2023-02-04T04:15:45.435Z,74.24
2023-02-04T04:18:12.101Z,74.55
2023-02-04T04:20:38.618Z,74.27
2023-02-04T04:23:05.169Z,74.97
2023-02-04T04:25:31.708Z,75.16
2023-02-04T04:27:58.322Z,74.40
2023-02-04T04:30:24.914Z,74.96
2023-02-04T04:32:51.487Z,74.60
2023-02-04T04:35:18.071Z,74.63
2023-02-04T04:37:44.617Z,74.52
2023-02-04T04:40:12.734Z,75.09
2023-02-04T04:42:39.376Z,74.39
2023-02-04T04:45:11.878Z,74.88
2023-02-04T04:47:38.631Z,74.83
2023-02-04T04:50:05.446Z,74.96
2023-02-04T04:52:31.985Z,75.04
2023-02-04T04:54:58.519Z,75.12
2023-02-04T04:57:25.058Z,74.52
2023-02-04T04:59:51.597Z,75.67
2023-02-04T05:02:18.314Z,75.33
2023-02-04T05:04:45.002Z,75.16
2023-02-04T05:07:11.605Z,75.14
2023-02-04T05:09:38.280Z,75.50
2023-02-04T05:12:05.163Z,75.43
2023-02-04T05:14:31.904Z,75.43
2023-02-04T05:16:58.466Z,75.05
2023-02-04T05:19:25.018Z,75.33
2023-02-04T05:21:51.558Z,75.56
2023-02-04T05:24:18.169Z,74.96
2023-02-04T05:26:44.720Z,75.10
2023-02-04T05:29:11.283Z,75.67
2023-02-04T05:31:38.155Z,75.64
2023-02-04T05:34:04.891Z,75.22
2023-02-04T05:36:31.506Z,75.20
2023-02-04T05:38:58.055Z,74.88
2023-02-04T05:41:24.664Z,75.74
2023-02-04T05:43:51.212Z,75.83
2023-02-04T05:46:17.778Z,74.97
2023-02-04T05:48:44.384Z,75.65
2023-02-04T05:51:11.014Z,75.15
2023-02-04T05:53:37.526Z,75.76
2023-02-04T05:56:04.281Z,76.20
2023-02-04T05:58:33.499Z,75.67
2023-02-04T06:01:02.023Z,75.59
2023-02-04T06:03:30.396Z,76.10
2023-02-04T06:05:57.308Z,75.75
2023-02-04T06:08:23.907Z,75.92
2023-02-04T06:10:50.588Z,75.80
2023-02-04T06:13:17.229Z,75.30
2023-02-04T06:15:43.781Z,75.77
2023-02-04T06:18:10.530Z,76.11
2023-02-04T06:20:37.173Z,76.23
2023-02-04T06:23:03.779Z,75.50
2023-02-04T06:25:30.338Z,76.08
2023-02-04T06:27:56.979Z,75.86
2023-02-04T06:30:23.582Z,76.04
2023-02-04T06:32:50.148Z,76.03
2023-02-04T06:35:16.885Z,75.84
2023-02-04T06:37:44.474Z,76.32
2023-02-04T06:40:12.196Z,76.20
2023-02-04T06:42:38.804Z,75.50
2023-02-04T06:45:05.848Z,75.93
2023-02-04T06:47:32.511Z,75.94
2023-02-04T06:49:59.059Z,75.65
2023-02-04T06:52:25.620Z,75.33
2023-02-04T06:54:52.203Z,76.16
2023-02-04T06:57:18.753Z,75.63
2023-02-04T06:59:47.073Z,75.93
2023-02-04T07:02:13.881Z,75.95
2023-02-04T07:04:40.462Z,76.27
2023-02-04T07:07:07.026Z,76.04
2023-02-04T07:09:33.572Z,76.46
2023-02-04T07:12:00.126Z,75.46
2023-02-04T07:14:26.750Z,75.55
2023-02-04T07:16:53.335Z,76.08
2023-02-04T07:19:21.257Z,76.04
2023-02-04T07:21:47.964Z,75.80
2023-02-04T07:24:14.538Z,75.82
2023-02-04T07:26:41.111Z,76.40
2023-02-04T07:29:12.205Z,76.50
2023-02-04T07:31:41.593Z,76.05
2023-02-04T07:34:08.374Z,76.22
2023-02-04T07:36:34.944Z,75.46
2023-02-04T07:39:01.508Z,75.34
2023-02-04T07:41:28.110Z,76.20
2023-02-04T07:43:54.653Z,75.33
2023-02-04T07:46:21.232Z,76.13
2023-02-04T07:48:47.773Z,75.74
2023-02-04T07:51:14.316Z,76.09
2023-02-04T07:53:40.881Z,75.84
2023-02-04T07:56:07.766Z,75.21
2023-02-04T07:58:34.333Z,75.54
2023-02-04T08:01:01.417Z,76.14
2023-02-04T08:03:28.008Z,76.36
2023-02-04T08:05:54.555Z,76.13
2023-02-04T08:08:21.082Z,76.15
2023-02-04T08:10:47.767Z,75.55
2023-02-04T08:13:14.384Z,75.55
2023-02-04T08:15:40.992Z,75.96
2023-02-04T08:18:07.599Z,75.52
2023-02-04T08:20:34.486Z,75.33
2023-02-04T08:23:01.203Z,75.87
2023-02-04T08:25:29.018Z,76.15
2023-02-04T08:27:55.975Z,75.51
2023-02-04T08:30:22.648Z,75.88
2023-02-04T08:32:49.189Z,75.71
2023-02-04T08:35:15.770Z,75.84
2023-02-04T08:37:42.316Z,75.50
2023-02-04T08:40:09.457Z,75.87
2023-02-04T08:42:36.083Z,75.45
2023-02-04T08:45:03.731Z,75.33
2023-02-04T08:47:30.359Z,75.42
2023-02-04T08:49:56.917Z,75.46
2023-02-04T08:52:23.719Z,75.17
2023-02-04T08:54:50.303Z,75.41
2023-02-04T08:57:16.896Z,75.30
2023-02-04T08:59:43.488Z,75.06
2023-02-04T09:02:10.649Z,75.04
2023-02-04T09:04:37.267Z,75.28
2023-02-04T09:07:03.920Z,74.59
2023-02-04T09:09:30.482Z,75.35
2023-02-04T09:11:57.012Z,74.83
2023-02-04T09:14:23.589Z,74.46
2023-02-04T09:16:50.178Z,74.48
2023-02-04T09:19:19.203Z,74.24
2023-02-04T09:21:45.774Z,74.42
2023-02-04T09:24:12.327Z,74.29
2023-02-04T09:26:38.872Z,74.00
2023-02-04T09:29:05.422Z,73.62
2023-02-04T09:31:32.057Z,74.17
2023-02-04T09:34:00.110Z,73.98
2023-02-04T09:36:29.220Z,73.80
2023-02-04T09:38:55.850Z,73.88
2023-02-04T09:41:22.716Z,73.86
2023-02-04T09:43:50.233Z,73.47
2023-02-04T09:46:28.694Z,73.58
2023-02-04T09:48:56.070Z,73.40
2023-02-04T09:51:27.019Z,73.59
2023-02-04T09:54:02.740Z,73.20
2023-02-04T09:56:29.278Z,72.97
2023-02-04T09:58:55.811Z,73.14
2023-02-04T10:01:22.464Z,73.35
2023-02-04T10:03:51.485Z,73.60
2023-02-04T10:06:20.453Z,72.56
2023-02-04T10:08:49.054Z,72.68
2023-02-04T10:11:17.649Z,73.01
2023-02-04T10:13:50.358Z,73.01
2023-02-04T10:16:23.761Z,72.49
2023-02-04T10:18:50.757Z,72.79
2023-02-04T10:21:22.834Z,72.63
2023-02-04T10:23:53.934Z,72.75
2023-02-04T10:26:22.431Z,72.77
2023-02-04T10:28:50.026Z,72.22
2023-02-04T10:31:38.282Z,71.77
2023-02-04T10:34:22.989Z,71.84
2023-02-04T10:36:53.647Z,71.84
2023-02-04T10:39:22.476Z,72.78
2023-02-04T10:41:53.077Z,71.91
2023-02-04T10:44:28.353Z,72.05
2023-02-04T10:47:05.000Z,71.62
2023-02-04T10:49:32.141Z,72.14
2023-02-04T10:51:58.765Z,72.18
2023-02-04T10:54:30.562Z,71.25
2023-02-04T10:57:00.742Z,71.50
2023-02-04T10:59:28.035Z,72.26
2023-02-04T11:01:57.583Z,71.47
2023-02-04T11:04:24.796Z,71.98
2023-02-04T11:06:53.080Z,71.08
2023-02-04T11:09:19.930Z,71.34
2023-02-04T11:11:48.790Z,70.93
2023-02-04T11:14:26.828Z,71.41
2023-02-04T11:16:54.803Z,71.03
2023-02-04T11:19:39.107Z,70.81
2023-02-04T11:22:09.126Z,71.19
2023-02-04T11:24:35.779Z,71.33
2023-02-04T11:27:18.668Z,71.12
2023-02-04T11:29:45.294Z,70.95
2023-02-04T11:32:34.948Z,70.92
2023-02-04T11:35:24.249Z,70.78
2023-02-04T11:37:51.054Z,70.08
2023-02-04T11:43:16.147Z,68.58
2023-02-04T11:45:44.011Z,69.58
2023-02-04T11:48:15.800Z,68.76
2023-02-04T11:50:42.656Z,69.41
2023-02-04T11:53:11.862Z,69.48
2023-02-04T11:55:47.539Z,69.61
2023-02-04T11:58:16.872Z,68.71
2023-02-04T12:00:44.671Z,69.24
2023-02-04T12:06:03.985Z,68.72
2023-02-04T12:08:33.459Z,68.53
2023-02-04T12:13:49.768Z,68.14
2023-02-04T12:16:16.617Z,68.24
2023-02-04T12:18:43.368Z,67.41
2023-02-04T12:21:10.000Z,68.39
2023-02-04T12:23:36.619Z,67.85
2023-02-04T12:26:03.354Z,67.51
2023-02-04T12:28:29.993Z,67.94
2023-02-04T12:30:57.006Z,67.24
2023-02-04T12:33:23.762Z,67.14
2023-02-04T12:35:53.397Z,67.85
2023-02-04T12:38:20.706Z,67.38
2023-02-04T12:40:47.733Z,67.50
2023-02-04T12:43:14.554Z,67.54
2023-02-04T12:45:45.790Z,66.56
2023-02-04T12:48:13.883Z,66.94
2023-02-04T12:50:40.607Z,67.42
2023-02-04T12:53:07.314Z,67.14
2023-02-04T12:55:34.151Z,66.23
2023-02-04T12:58:00.934Z,67.22
2023-02-04T13:00:27.846Z,67.31
2023-02-04T13:02:55.668Z,66.38
2023-02-04T13:05:22.557Z,66.34
2023-02-04T13:07:49.154Z,67.08
2023-02-04T13:10:16.070Z,66.57
2023-02-04T13:12:42.719Z,66.88
2023-02-04T13:15:10.442Z,66.75
2023-02-04T13:17:37.203Z,65.88
2023-02-04T13:20:05.361Z,66.84
2023-02-04T13:22:32.096Z,66.04
2023-02-04T13:24:59.099Z,66.22
2023-02-04T13:27:25.934Z,66.47
2023-02-04T13:29:52.561Z,66.96
2023-02-04T13:32:19.181Z,66.95
2023-02-04T13:34:45.828Z,66.39
2023-02-04T13:37:12.495Z,67.12
2023-02-04T13:39:39.098Z,66.58
2023-02-04T13:42:05.756Z,66.59
2023-02-04T13:44:32.382Z,66.84
2023-02-04T13:46:58.990Z,66.58
2023-02-04T13:49:25.690Z,66.88
2023-02-04T13:51:52.398Z,66.94
2023-02-04T13:54:19.260Z,66.82
2023-02-04T13:56:45.963Z,67.83
2023-02-04T13:59:12.603Z,67.17
2023-02-04T14:01:39.297Z,66.87
2023-02-04T14:04:05.942Z,66.85
2023-02-04T14:06:34.502Z,66.93
2023-02-04T14:09:01.645Z,67.58
2023-02-04T14:11:28.818Z,67.27
2023-02-04T14:13:55.697Z,67.31
2023-02-04T14:16:22.599Z,67.36
2023-02-04T14:18:49.372Z,66.84
2023-02-04T14:21:16.039Z,66.70
2023-02-04T14:23:42.711Z,67.24
2023-02-04T14:26:09.531Z,67.23
2023-02-04T14:28:36.297Z,67.15
2023-02-04T14:31:03.132Z,67.70
2023-02-04T14:33:30.060Z,67.02
2023-02-04T14:35:56.666Z,67.51
2023-02-04T14:38:23.234Z,66.58
2023-02-04T14:40:49.812Z,67.57
2023-02-04T14:43:16.370Z,66.73
2023-02-04T14:45:42.975Z,67.03
2023-02-04T14:48:09.553Z,66.91
2023-02-04T14:50:36.249Z,66.72
2023-02-04T14:53:03.586Z,67.55
2023-02-04T14:55:30.408Z,67.46
2023-02-04T14:57:57.053Z,66.53
2023-02-04T15:00:24.066Z,67.30
2023-02-04T15:02:51.001Z,66.83
2023-02-04T15:05:17.646Z,66.46
2023-02-04T15:07:44.278Z,66.97
2023-02-04T15:10:13.814Z,67.61
2023-02-04T15:12:41.801Z,66.58
2023-02-04T15:15:08.817Z,67.29
2023-02-04T15:17:35.399Z,67.03
2023-02-04T15:20:04.059Z,66.81
2023-02-04T15:22:30.612Z,67.44
2023-02-04T15:24:57.246Z,67.46
2023-02-04T15:27:23.836Z,67.34
2023-02-04T15:29:50.367Z,67.39
2023-02-04T15:32:16.943Z,67.30
2023-02-04T15:34:43.626Z,66.85
2023-02-04T15:37:11.007Z,67.29
2023-02-04T15:39:38.292Z,66.92
2023-02-04T15:42:04.960Z,67.12
2023-02-04T15:44:31.553Z,67.26
2023-02-04T15:46:58.093Z,67.13
2023-02-04T15:49:24.668Z,67.08
2023-02-04T15:51:51.198Z,66.87
2023-02-04T15:54:17.715Z,66.85
2023-02-04T15:56:44.624Z,67.45
2023-02-04T15:59:11.336Z,67.25
2023-02-04T16:01:37.997Z,67.22
2023-02-04T16:04:04.786Z,67.25
2023-02-04T16:06:31.420Z,67.03
2023-02-04T16:08:57.957Z,67.78
2023-02-04T16:11:24.508Z,66.94
2023-02-04T16:13:51.045Z,67.49
2023-02-04T16:16:17.773Z,67.22
2023-02-04T16:18:44.319Z,67.87
2023-02-04T16:21:10.870Z,68.06
2023-02-04T16:23:37.459Z,67.52
2023-02-04T16:26:04.116Z,67.70
2023-02-04T16:28:30.665Z,67.78
2023-02-04T16:30:57.275Z,68.10
2023-02-04T16:33:24.721Z,67.91
2023-02-04T16:36:02.169Z,67.74
2023-02-04T16:38:29.866Z,68.47
2023-02-04T16:40:56.849Z,68.03
2023-02-04T16:43:24.522Z,68.38
2023-02-04T16:45:51.650Z,68.12
2023-02-04T16:48:18.217Z,68.31
2023-02-04T16:50:44.778Z,68.21
2023-02-04T16:53:15.018Z,68.42
2023-02-04T16:55:42.895Z,68.54
2023-02-04T16:58:10.730Z,68.25
2023-02-04T17:00:41.815Z,68.69
2023-02-04T17:03:09.672Z,68.66
2023-02-04T17:05:37.433Z,68.52
2023-02-04T17:08:04.775Z,68.50
2023-02-04T17:10:51.399Z,68.70
2023-02-04T17:13:18.285Z,68.81
2023-02-04T17:15:45.014Z,68.94
2023-02-04T17:18:11.855Z,68.83
2023-02-04T17:20:38.526Z,68.33
2023-02-04T17:23:05.374Z,69.34
2023-02-04T17:25:32.546Z,69.17
2023-02-04T17:27:59.345Z,68.99
2023-02-04T17:30:25.934Z,69.16
2023-02-04T17:32:52.502Z,69.84
2023-02-04T17:35:19.306Z,69.43
2023-02-04T17:37:45.869Z,69.06
2023-02-04T17:40:13.669Z,69.03
2023-02-04T17:42:41.146Z,69.40
2023-02-04T17:45:10.489Z,69.25
2023-02-04T17:47:38.959Z,69.38
2023-02-04T17:50:09.875Z,69.31
2023-02-04T17:52:37.935Z,69.44
2023-02-04T17:55:27.791Z,69.41
2023-02-04T17:57:55.133Z,69.40
2023-02-04T18:00:25.675Z,69.63
2023-02-04T18:02:52.891Z,69.51
2023-02-04T18:05:22.771Z,69.31
2023-02-04T18:10:33.165Z,69.74
2023-02-04T18:13:01.286Z,69.82
2023-02-04T18:15:30.520Z,70.11
2023-02-04T18:18:08.928Z,70.48
2023-02-04T18:20:35.599Z,70.22
2023-02-04T18:23:02.819Z,70.13
2023-02-04T18:25:29.828Z,69.89
2023-02-04T18:28:00.945Z,69.71
2023-02-04T18:30:28.024Z,69.91
2023-02-04T18:32:54.702Z,70.19
2023-02-04T18:38:37.184Z,70.31
2023-02-04T18:44:02.533Z,69.16
2023-02-04T18:46:35.583Z,69.64
2023-02-04T18:49:06.100Z,70.54
2023-02-04T18:51:38.067Z,70.45
2023-02-04T18:57:16.191Z,70.84
2023-02-04T18:59:42.923Z,70.65
2023-02-04T19:05:12.800Z,70.66
2023-02-04T19:07:39.898Z,70.54
2023-02-04T19:10:28.882Z,70.46
2023-02-04T19:13:19.025Z,70.33
2023-02-04T19:15:56.603Z,70.59
2023-02-04T19:18:27.959Z,70.46
2023-02-04T19:20:55.719Z,70.60
2023-02-04T19:23:24.004Z,70.45
2023-02-04T19:25:52.456Z,70.63
2023-02-04T19:28:27.309Z,70.73
2023-02-04T19:31:03.667Z,70.55
2023-02-04T19:36:37.085Z,70.49
2023-02-04T19:39:22.200Z,70.68
2023-02-04T19:41:51.239Z,70.59
2023-02-04T19:47:37.555Z,71.58
2023-02-04T19:53:02.431Z,70.27
2023-02-04T19:55:33.447Z,71.49
2023-02-04T19:58:09.348Z,71.21
2023-02-04T20:03:16.348Z,71.36
2023-02-04T20:05:43.383Z,71.91
2023-02-04T20:08:46.758Z,71.79
2023-02-04T20:17:03.416Z,71.63
2023-02-04T20:22:32.038Z,71.91
2023-02-04T20:25:26.486Z,71.69
2023-02-04T20:27:57.009Z,72.19
2023-02-04T20:30:28.149Z,72.31
2023-02-04T20:32:58.638Z,72.14
2023-02-04T20:38:17.276Z,72.48
2023-02-04T20:40:46.752Z,72.06
2023-02-04T20:43:20.218Z,72.07
2023-02-04T20:45:56.680Z,72.54
2023-02-04T20:48:33.046Z,72.20
2023-02-04T20:51:03.939Z,72.79
2023-02-04T20:56:25.420Z,72.32
2023-02-04T20:58:56.738Z,72.73
2023-02-04T21:06:56.262Z,72.76
2023-02-04T21:12:02.038Z,72.56
2023-02-04T21:14:30.133Z,73.17
2023-02-04T21:16:57.394Z,73.00
2023-02-04T21:19:25.582Z,72.55
2023-02-04T21:21:52.306Z,72.67
2023-02-04T21:24:18.926Z,73.03
2023-02-04T21:26:45.611Z,73.29
2023-02-04T21:29:12.435Z,73.67
2023-02-04T21:31:39.063Z,72.97
2023-02-04T21:34:06.763Z,73.38
2023-02-04T21:36:33.559Z,73.71
2023-02-04T21:39:00.591Z,72.85
2023-02-04T21:41:27.207Z,73.21
2023-02-04T21:43:53.939Z,73.44
2023-02-04T21:46:20.544Z,73.16
2023-02-04T21:48:47.395Z,73.30
2023-02-04T21:51:14.812Z,73.09
2023-02-04T21:53:41.792Z,73.35
2023-02-04T21:56:09.508Z,73.22
2023-02-04T21:58:36.900Z,73.51
2023-02-04T22:01:03.574Z,73.37
2023-02-04T22:03:30.172Z,73.44
2023-02-04T22:05:56.759Z,73.78
2023-02-04T22:08:23.370Z,74.21
2023-02-04T22:10:49.938Z,74.05
2023-02-04T22:13:16.529Z,73.62
2023-02-04T22:15:43.063Z,73.67
2023-02-04T22:18:09.843Z,73.68
2023-02-04T22:20:39.184Z,73.85
2023-02-04T22:23:06.062Z,73.75
2023-02-04T22:25:33.132Z,73.94
2023-02-04T22:27:59.877Z,74.04
2023-02-04T22:30:26.491Z,73.64
2023-02-04T22:32:53.196Z,73.80
2023-02-04T22:35:19.802Z,73.75
2023-02-04T22:37:46.396Z,73.38
2023-02-04T22:40:13.239Z,74.13
2023-02-04T22:42:40.226Z,74.14
2023-02-04T22:45:08.048Z,73.61
2023-02-04T22:47:34.583Z,74.57
2023-02-04T22:50:01.102Z,74.17
2023-02-04T22:52:27.706Z,73.92
2023-02-04T22:54:55.400Z,73.89
2023-02-04T22:57:21.946Z,73.71
2023-02-04T22:59:48.887Z,73.94
2023-02-04T23:02:15.487Z,73.84
2023-02-04T23:04:44.217Z,73.75
2023-02-04T23:07:11.791Z,73.44
2023-02-04T23:09:38.482Z,73.77
2023-02-04T23:12:12.931Z,74.19
2023-02-04T23:14:44.235Z,74.51
2023-02-04T23:17:11.561Z,74.38
2023-02-04T23:19:39.451Z,74.11
2023-02-04T23:22:07.352Z,73.75
2023-02-04T23:24:34.553Z,74.36
2023-02-04T23:27:01.673Z,74.44
2023-02-04T23:29:28.595Z,74.50
2023-02-04T23:31:55.957Z,74.53
2023-02-04T23:34:22.563Z,73.77
2023-02-04T23:36:51.248Z,74.64
2023-02-04T23:39:19.379Z,73.79
2023-02-04T23:41:46.437Z,73.93
2023-02-04T23:44:13.390Z,73.55
2023-02-04T23:46:40.219Z,74.47
2023-02-04T23:49:06.842Z,74.30
2023-02-04T23:51:33.578Z,74.33
2023-02-04T23:54:00.540Z,74.01
2023-02-04T23:56:27.230Z,73.83
2023-02-04T23:58:54.231Z,72.97
